sensor_id;sensor_type;location;lat;lon;timestamp;temperature;humidity
8971;DHT22;4520;48.978;8.986;2022-11-27T07:18:21;-0.10;84.50
8971;DHT22;4520;48.978;8.986;2022-11-27T07:20:50;-0.10;86.90
8971;DHT22;4520;48.978;8.986;2022-11-27T07:28:08;0.10;83.10
8971;DHT22;4520;48.978;8.986;2022-11-27T07:33:00;0.10;80.90
8971;DHT22;4520;48.978;8.986;2022-11-27T07:35:26;0.00;86.70
8971;DHT22;4520;48.978;8.986;2022-11-27T07:37:51;0.20;87.00
8971;DHT22;4520;48.978;8.986;2022-11-27T07:40:17;0.10;87.10
8971;DHT22;4520;48.978;8.986;2022-11-27T07:42:43;0.20;87.10
8971;DHT22;4520;48.978;8.986;2022-11-27T07:45:09;0.60;88.40
8971;DHT22;4520;48.978;8.986;2022-11-27T07:47:34;0.30;87.20
8971;DHT22;4520;48.978;8.986;2022-11-27T07:50:00;0.30;87.40
8971;DHT22;4520;48.978;8.986;2022-11-27T07:52:26;0.40;87.50
8971;DHT22;4520;48.978;8.986;2022-11-27T07:54:51;0.50;87.80
8971;DHT22;4520;48.978;8.986;2022-11-27T07:57:17;0.50;87.90
8971;DHT22;4520;48.978;8.986;2022-11-27T07:59:42;0.50;88.30
8971;DHT22;4520;48.978;8.986;2022-11-27T09:12:52;2.60;95.20
8971;DHT22;4520;48.978;8.986;2022-11-27T09:15:20;2.70;95.30
8971;DHT22;4520;48.978;8.986;2022-11-27T09:17:45;2.80;95.70
8971;DHT22;4520;48.978;8.986;2022-11-27T09:22:38;2.80;96.50
8971;DHT22;4520;48.978;8.986;2022-11-27T09:25:04;2.70;97.00
8971;DHT22;4520;48.978;8.986;2022-11-27T09:27:29;2.80;97.40
8971;DHT22;4520;48.978;8.986;2022-11-27T09:29:55;2.80;97.70
8971;DHT22;4520;48.978;8.986;2022-11-27T09:32:21;3.00;98.10
8971;DHT22;4520;48.978;8.986;2022-11-27T09:34:46;3.00;98.20
8971;DHT22;4520;48.978;8.986;2022-11-27T09:51:58;3.20;70.50
8971;DHT22;4520;48.978;8.986;2022-11-27T09:54:25;3.30;59.80
8971;DHT22;4520;48.978;8.986;2022-11-27T09:56:53;3.30;67.70
8971;DHT22;4520;48.978;8.986;2022-11-27T10:18:57;4.30;20.50
8971;DHT22;4520;48.978;8.986;2022-11-27T10:24:09;4.70;1.00
8971;DHT22;4520;48.978;8.986;2022-11-27T10:26:38;4.60;1.00
8971;DHT22;4520;48.978;8.986;2022-11-27T10:31:31;4.90;1.00
8971;DHT22;4520;48.978;8.986;2022-11-27T10:34:03;5.00;1.00
8971;DHT22;4520;48.978;8.986;2022-11-27T10:38:55;5.30;1.00
8971;DHT22;4520;48.978;8.986;2022-11-27T10:41:23;5.20;1.00
8971;DHT22;4520;48.978;8.986;2022-11-27T10:43:51;5.30;99.90
8971;DHT22;4520;48.978;8.986;2022-11-27T10:48:45;5.70;1.00
8971;DHT22;4520;48.978;8.986;2022-11-27T10:51:18;5.90;99.90
8971;DHT22;4520;48.978;8.986;2022-11-27T10:53:45;6.00;1.00
8971;DHT22;4520;48.978;8.986;2022-11-27T10:57:17;6.30;1.00
8971;DHT22;4520;48.978;8.986;2022-11-27T10:59:10;6.40;1.00
8971;DHT22;4520;48.978;8.986;2022-11-27T11:01:43;6.40;1.00
8971;DHT22;4520;48.978;8.986;2022-11-27T11:04:10;6.30;99.90
8971;DHT22;4520;48.978;8.986;2022-11-27T11:06:37;6.40;99.90
8971;DHT22;4520;48.978;8.986;2022-11-27T11:09:25;6.30;99.90
8971;DHT22;4520;48.978;8.986;2022-11-27T11:11:50;6.40;99.90
8971;DHT22;4520;48.978;8.986;2022-11-27T11:14:25;6.50;99.90
8971;DHT22;4520;48.978;8.986;2022-11-27T11:16:51;7.80;21.20
8971;DHT22;4520;48.978;8.986;2022-11-27T11:21:46;6.80;1.00
8971;DHT22;4520;48.978;8.986;2022-11-27T11:26:38;6.70;1.00
8971;DHT22;4520;48.978;8.986;2022-11-27T11:29:06;6.70;1.00
8971;DHT22;4520;48.978;8.986;2022-11-27T11:31:42;7.80;1.00
8971;DHT22;4520;48.978;8.986;2022-11-27T11:34:17;6.30;1.00
8971;DHT22;4520;48.978;8.986;2022-11-27T11:36:53;6.90;1.00
8971;DHT22;4520;48.978;8.986;2022-11-27T11:39:23;7.50;1.00
8971;DHT22;4520;48.978;8.986;2022-11-27T11:41:49;7.10;1.00
8971;DHT22;4520;48.978;8.986;2022-11-27T11:44:19;7.10;1.00
8971;DHT22;4520;48.978;8.986;2022-11-27T11:46:50;7.60;1.00
8971;DHT22;4520;48.978;8.986;2022-11-27T11:49:22;8.30;1.00
8971;DHT22;4520;48.978;8.986;2022-11-27T11:56:48;7.50;99.90
8971;DHT22;4520;48.978;8.986;2022-11-27T12:15:28;8.20;99.90
8971;DHT22;4520;48.978;8.986;2022-11-27T12:17:57;8.30;99.90
8971;DHT22;4520;48.978;8.986;2022-11-27T12:20:40;8.30;99.90
8971;DHT22;4520;48.978;8.986;2022-11-27T12:23:23;8.70;99.90
8971;DHT22;4520;48.978;8.986;2022-11-27T12:29:34;8.90;99.90
8971;DHT22;4520;48.978;8.986;2022-11-27T12:34:09;9.20;99.90
8971;DHT22;4520;48.978;8.986;2022-11-27T12:36:42;9.00;99.90
8971;DHT22;4520;48.978;8.986;2022-11-27T12:39:12;9.10;99.90
8971;DHT22;4520;48.978;8.986;2022-11-27T12:44:16;9.10;99.90
8971;DHT22;4520;48.978;8.986;2022-11-27T12:46:59;9.20;99.90
8971;DHT22;4520;48.978;8.986;2022-11-27T12:49:45;9.60;99.90
8971;DHT22;4520;48.978;8.986;2022-11-27T12:57:15;10.20;99.90
8971;DHT22;4520;48.978;8.986;2022-11-27T13:04:38;9.80;99.90
8971;DHT22;4520;48.978;8.986;2022-11-27T13:07:08;9.70;88.10
8971;DHT22;4520;48.978;8.986;2022-11-27T13:12:00;9.60;99.90
8971;DHT22;4520;48.978;8.986;2022-11-27T13:14:27;9.50;99.90
8971;DHT22;4520;48.978;8.986;2022-11-27T13:17:01;9.30;99.90
8971;DHT22;4520;48.978;8.986;2022-11-27T13:21:53;9.00;99.90
8971;DHT22;4520;48.978;8.986;2022-11-27T13:24:20;8.90;99.90
8971;DHT22;4520;48.978;8.986;2022-11-27T13:27:00;9.50;99.90
8971;DHT22;4520;48.978;8.986;2022-11-27T13:29:30;8.80;99.90
8971;DHT22;4520;48.978;8.986;2022-11-27T13:31:57;9.30;99.90
8971;DHT22;4520;48.978;8.986;2022-11-27T13:34:24;8.70;99.90
8971;DHT22;4520;48.978;8.986;2022-11-27T13:36:55;9.60;99.90
8971;DHT22;4520;48.978;8.986;2022-11-27T13:39:22;8.60;99.90
8971;DHT22;4520;48.978;8.986;2022-11-27T13:41:47;8.40;99.90
8971;DHT22;4520;48.978;8.986;2022-11-27T13:44:23;8.40;99.90
8971;DHT22;4520;48.978;8.986;2022-11-27T13:46:49;8.70;99.90
8971;DHT22;4520;48.978;8.986;2022-11-27T13:49:29;9.20;99.90
8971;DHT22;4520;48.978;8.986;2022-11-27T13:52:11;8.50;99.90
8971;DHT22;4520;48.978;8.986;2022-11-27T13:54:38;8.60;99.90
8971;DHT22;4520;48.978;8.986;2022-11-27T13:57:37;8.50;99.90
8971;DHT22;4520;48.978;8.986;2022-11-27T14:00:00;8.60;99.90
8971;DHT22;4520;48.978;8.986;2022-11-27T14:02:42;8.50;99.90
8971;DHT22;4520;48.978;8.986;2022-11-27T14:05:09;8.50;99.90
8971;DHT22;4520;48.978;8.986;2022-11-27T14:10:05;8.40;99.90
8971;DHT22;4520;48.978;8.986;2022-11-27T14:12:30;8.30;99.90
8971;DHT22;4520;48.978;8.986;2022-11-27T14:17:39;8.30;99.90
8971;DHT22;4520;48.978;8.986;2022-11-27T14:22:49;8.30;99.90
8971;DHT22;4520;48.978;8.986;2022-11-27T14:25:16;8.40;99.90
8971;DHT22;4520;48.978;8.986;2022-11-27T14:27:41;8.10;99.90
8971;DHT22;4520;48.978;8.986;2022-11-27T14:30:10;8.30;99.90
8971;DHT22;4520;48.978;8.986;2022-11-27T14:32:38;8.10;99.90
8971;DHT22;4520;48.978;8.986;2022-11-27T14:35:17;8.90;99.90
8971;DHT22;4520;48.978;8.986;2022-11-27T14:37:43;7.90;99.90
8971;DHT22;4520;48.978;8.986;2022-11-27T14:40:13;8.00;99.90
8971;DHT22;4520;48.978;8.986;2022-11-27T14:42:38;8.20;99.90
8971;DHT22;4520;48.978;8.986;2022-11-27T14:45:05;7.90;99.90
8971;DHT22;4520;48.978;8.986;2022-11-27T14:47:31;7.80;99.90
8971;DHT22;4520;48.978;8.986;2022-11-27T14:49:57;7.80;99.90
8971;DHT22;4520;48.978;8.986;2022-11-27T14:52:23;7.80;99.90
8971;DHT22;4520;48.978;8.986;2022-11-27T14:54:49;7.70;99.90
8971;DHT22;4520;48.978;8.986;2022-11-27T14:57:22;7.60;99.90
8971;DHT22;4520;48.978;8.986;2022-11-27T15:02:15;7.60;99.90
8971;DHT22;4520;48.978;8.986;2022-11-27T15:04:42;7.40;99.90
8971;DHT22;4520;48.978;8.986;2022-11-27T15:07:13;7.40;99.90
8971;DHT22;4520;48.978;8.986;2022-11-27T15:09:41;7.40;99.90
8971;DHT22;4520;48.978;8.986;2022-11-27T15:12:50;7.40;99.90
8971;DHT22;4520;48.978;8.986;2022-11-27T15:14:59;7.30;99.90
8971;DHT22;4520;48.978;8.986;2022-11-27T15:17:29;8.20;99.90
8971;DHT22;4520;48.978;8.986;2022-11-27T15:19:56;7.20;99.90
8971;DHT22;4520;48.978;8.986;2022-11-27T15:22:22;7.20;99.90
8971;DHT22;4520;48.978;8.986;2022-11-27T15:25:01;8.60;99.90
8971;DHT22;4520;48.978;8.986;2022-11-27T15:34:47;6.90;1.00
8971;DHT22;4520;48.978;8.986;2022-11-27T15:37:19;6.70;1.00
8971;DHT22;4520;48.978;8.986;2022-11-27T15:49:30;6.60;99.90
8971;DHT22;4520;48.978;8.986;2022-11-27T15:51:56;6.50;99.90
8971;DHT22;4520;48.978;8.986;2022-11-27T15:54:22;6.50;99.90
8971;DHT22;4520;48.978;8.986;2022-11-27T15:56:48;6.40;99.90
8971;DHT22;4520;48.978;8.986;2022-11-27T15:59:14;6.40;99.90
8971;DHT22;4520;48.978;8.986;2022-11-27T16:01:39;6.40;1.00
8971;DHT22;4520;48.978;8.986;2022-11-27T16:04:05;6.20;1.00
8971;DHT22;4520;48.978;8.986;2022-11-27T16:06:30;6.30;1.00
8971;DHT22;4520;48.978;8.986;2022-11-27T16:08:57;6.20;1.00
8971;DHT22;4520;48.978;8.986;2022-11-27T16:11:23;6.20;1.00
8971;DHT22;4520;48.978;8.986;2022-11-27T16:13:49;6.80;1.00
8971;DHT22;4520;48.978;8.986;2022-11-27T16:16:14;6.90;1.00
8971;DHT22;4520;48.978;8.986;2022-11-27T16:18:40;6.20;1.00
8971;DHT22;4520;48.978;8.986;2022-11-27T16:25:57;6.10;1.00
8971;DHT22;4520;48.978;8.986;2022-11-27T16:28:27;6.10;1.00
8971;DHT22;4520;48.978;8.986;2022-11-27T16:30:53;6.10;1.00
8971;DHT22;4520;48.978;8.986;2022-11-27T16:33:18;6.10;1.00
8971;DHT22;4520;48.978;8.986;2022-11-27T16:35:45;6.10;1.00
8971;DHT22;4520;48.978;8.986;2022-11-27T16:38:11;6.00;1.00
8971;DHT22;4520;48.978;8.986;2022-11-27T16:40:36;6.00;1.00
8971;DHT22;4520;48.978;8.986;2022-11-27T16:43:02;6.00;1.00
8971;DHT22;4520;48.978;8.986;2022-11-27T16:45:28;6.00;1.00
8971;DHT22;4520;48.978;8.986;2022-11-27T16:47:53;5.90;23.90
8971;DHT22;4520;48.978;8.986;2022-11-27T16:50:19;6.20;99.90
8971;DHT22;4520;48.978;8.986;2022-11-27T16:52:44;5.90;99.90
8971;DHT22;4520;48.978;8.986;2022-11-27T16:55:10;5.80;99.90
8971;DHT22;4520;48.978;8.986;2022-11-27T16:57:35;5.80;99.90
8971;DHT22;4520;48.978;8.986;2022-11-27T17:00:01;5.90;99.90
8971;DHT22;4520;48.978;8.986;2022-11-27T17:02:26;5.70;99.90
8971;DHT22;4520;48.978;8.986;2022-11-27T17:04:53;5.80;99.90
8971;DHT22;4520;48.978;8.986;2022-11-27T17:07:19;5.80;99.90
8971;DHT22;4520;48.978;8.986;2022-11-27T17:09:45;5.70;99.90
8971;DHT22;4520;48.978;8.986;2022-11-27T17:12:10;5.70;99.90
8971;DHT22;4520;48.978;8.986;2022-11-27T17:14:36;5.70;1.00
8971;DHT22;4520;48.978;8.986;2022-11-27T17:17:02;5.70;1.00
8971;DHT22;4520;48.978;8.986;2022-11-27T17:19:27;5.60;1.00
8971;DHT22;4520;48.978;8.986;2022-11-27T17:21:54;5.60;1.00
8971;DHT22;4520;48.978;8.986;2022-11-27T17:24:19;5.60;1.00
8971;DHT22;4520;48.978;8.986;2022-11-27T17:26:45;5.60;99.90
8971;DHT22;4520;48.978;8.986;2022-11-27T17:29:12;5.50;99.90
8971;DHT22;4520;48.978;8.986;2022-11-27T17:31:38;6.20;1.00
8971;DHT22;4520;48.978;8.986;2022-11-27T17:34:04;5.30;1.00
8971;DHT22;4520;48.978;8.986;2022-11-27T17:36:30;5.50;99.90
8971;DHT22;4520;48.978;8.986;2022-11-27T17:38:55;5.50;99.90
8971;DHT22;4520;48.978;8.986;2022-11-27T17:41:21;5.50;1.00
8971;DHT22;4520;48.978;8.986;2022-11-27T17:43:47;5.40;1.00
8971;DHT22;4520;48.978;8.986;2022-11-27T17:48:38;5.40;1.00
8971;DHT22;4520;48.978;8.986;2022-11-27T17:58:22;5.40;99.90
8971;DHT22;4520;48.978;8.986;2022-11-27T18:00:48;5.40;99.90
8971;DHT22;4520;48.978;8.986;2022-11-27T18:05:39;5.30;99.90
8971;DHT22;4520;48.978;8.986;2022-11-27T18:08:05;5.20;99.90
8971;DHT22;4520;48.978;8.986;2022-11-27T18:10:32;5.30;99.90
8971;DHT22;4520;48.978;8.986;2022-11-27T18:12:57;5.30;99.90
8971;DHT22;4520;48.978;8.986;2022-11-27T18:15:23;5.30;99.90
8971;DHT22;4520;48.978;8.986;2022-11-27T18:17:48;5.20;97.00
8971;DHT22;4520;48.978;8.986;2022-11-27T18:20:14;5.20;14.00
8971;DHT22;4520;48.978;8.986;2022-11-27T18:22:39;5.20;1.00
8971;DHT22;4520;48.978;8.986;2022-11-27T18:25:05;5.30;1.00
8971;DHT22;4520;48.978;8.986;2022-11-27T18:27:30;5.30;1.00
8971;DHT22;4520;48.978;8.986;2022-11-27T18:29:57;5.30;99.90
8971;DHT22;4520;48.978;8.986;2022-11-27T18:32:22;5.20;1.00
8971;DHT22;4520;48.978;8.986;2022-11-27T18:39:39;5.30;99.90
8971;DHT22;4520;48.978;8.986;2022-11-27T18:42:05;5.30;99.90
8971;DHT22;4520;48.978;8.986;2022-11-27T18:49:23;5.20;1.00
8971;DHT22;4520;48.978;8.986;2022-11-27T18:56:40;5.30;1.00
8971;DHT22;4520;48.978;8.986;2022-11-27T18:59:05;5.20;1.00
8971;DHT22;4520;48.978;8.986;2022-11-27T19:01:32;5.10;1.00
8971;DHT22;4520;48.978;8.986;2022-11-27T19:03:58;5.20;1.00
8971;DHT22;4520;48.978;8.986;2022-11-27T19:06:24;5.10;99.90
8971;DHT22;4520;48.978;8.986;2022-11-27T19:08:50;5.10;99.90
8971;DHT22;4520;48.978;8.986;2022-11-27T19:23:26;5.20;1.00
8971;DHT22;4520;48.978;8.986;2022-11-27T19:25:52;5.20;1.00
8971;DHT22;4520;48.978;8.986;2022-11-27T19:28:17;5.20;1.00
8971;DHT22;4520;48.978;8.986;2022-11-27T19:30:43;5.20;1.00
8971;DHT22;4520;48.978;8.986;2022-11-27T19:33:09;5.90;1.00
8971;DHT22;4520;48.978;8.986;2022-11-27T19:35:35;5.20;1.00
8971;DHT22;4520;48.978;8.986;2022-11-27T19:38:00;5.20;1.00
8971;DHT22;4520;48.978;8.986;2022-11-27T19:40:27;5.20;1.00
8971;DHT22;4520;48.978;8.986;2022-11-27T19:42:52;5.10;1.00
8971;DHT22;4520;48.978;8.986;2022-11-27T19:52:36;5.10;99.90
8971;DHT22;4520;48.978;8.986;2022-11-27T19:55:02;5.00;37.60
8971;DHT22;4520;48.978;8.986;2022-11-27T19:57:27;5.10;1.00
8971;DHT22;4520;48.978;8.986;2022-11-27T19:59:53;5.10;1.00
8971;DHT22;4520;48.978;8.986;2022-11-27T20:02:19;5.00;1.00
8971;DHT22;4520;48.978;8.986;2022-11-27T20:04:44;5.00;1.00
8971;DHT22;4520;48.978;8.986;2022-11-27T20:07:10;5.10;1.00
8971;DHT22;4520;48.978;8.986;2022-11-27T20:09:35;5.00;1.00
8971;DHT22;4520;48.978;8.986;2022-11-27T20:12:01;5.00;1.00
8971;DHT22;4520;48.978;8.986;2022-11-27T20:14:26;5.00;1.00
8971;DHT22;4520;48.978;8.986;2022-11-27T20:16:52;4.90;1.00
8971;DHT22;4520;48.978;8.986;2022-11-27T20:19:17;4.90;1.00
8971;DHT22;4520;48.978;8.986;2022-11-27T20:21:43;5.00;1.00
8971;DHT22;4520;48.978;8.986;2022-11-27T20:24:08;5.00;1.00
8971;DHT22;4520;48.978;8.986;2022-11-27T20:26:34;5.00;1.00
8971;DHT22;4520;48.978;8.986;2022-11-27T20:43:38;4.90;1.00
8971;DHT22;4520;48.978;8.986;2022-11-27T20:46:04;4.90;1.00
8971;DHT22;4520;48.978;8.986;2022-11-27T20:48:32;4.90;1.00
8971;DHT22;4520;48.978;8.986;2022-11-27T20:51:05;4.80;1.00
8971;DHT22;4520;48.978;8.986;2022-11-27T20:53:30;4.80;1.00
8971;DHT22;4520;48.978;8.986;2022-11-27T20:55:59;4.80;1.00
8971;DHT22;4520;48.978;8.986;2022-11-27T20:58:25;4.70;1.00
8971;DHT22;4520;48.978;8.986;2022-11-27T21:00:50;4.70;1.00
8971;DHT22;4520;48.978;8.986;2022-11-27T21:03:16;4.70;1.00
8971;DHT22;4520;48.978;8.986;2022-11-27T21:05:41;4.80;1.00
8971;DHT22;4520;48.978;8.986;2022-11-27T21:08:08;4.80;1.00
8971;DHT22;4520;48.978;8.986;2022-11-27T21:10:33;4.80;1.00
8971;DHT22;4520;48.978;8.986;2022-11-27T21:12:59;4.80;1.00
8971;DHT22;4520;48.978;8.986;2022-11-27T21:15:24;4.80;1.00
8971;DHT22;4520;48.978;8.986;2022-11-27T21:17:50;4.70;1.00
8971;DHT22;4520;48.978;8.986;2022-11-27T21:20:15;4.70;1.00
8971;DHT22;4520;48.978;8.986;2022-11-27T21:22:41;4.80;1.00
8971;DHT22;4520;48.978;8.986;2022-11-27T21:25:08;4.70;1.00
8971;DHT22;4520;48.978;8.986;2022-11-27T21:27:33;4.70;1.00
8971;DHT22;4520;48.978;8.986;2022-11-27T21:30:01;4.70;1.00
8971;DHT22;4520;48.978;8.986;2022-11-27T21:32:27;4.80;1.00
8971;DHT22;4520;48.978;8.986;2022-11-27T21:34:53;4.70;1.00
8971;DHT22;4520;48.978;8.986;2022-11-27T21:37:18;4.80;1.00
8971;DHT22;4520;48.978;8.986;2022-11-27T21:39:43;4.80;1.00
8971;DHT22;4520;48.978;8.986;2022-11-27T21:42:09;4.70;1.00
8971;DHT22;4520;48.978;8.986;2022-11-27T21:44:35;4.80;1.00
8971;DHT22;4520;48.978;8.986;2022-11-27T21:47:03;4.80;1.00
8971;DHT22;4520;48.978;8.986;2022-11-27T21:49:30;4.80;1.00
8971;DHT22;4520;48.978;8.986;2022-11-27T21:51:55;4.80;1.00
8971;DHT22;4520;48.978;8.986;2022-11-27T21:54:21;4.70;1.00
8971;DHT22;4520;48.978;8.986;2022-11-27T21:56:49;4.60;1.00
8971;DHT22;4520;48.978;8.986;2022-11-27T21:59:14;4.70;1.00
8971;DHT22;4520;48.978;8.986;2022-11-27T22:01:42;4.70;1.00
8971;DHT22;4520;48.978;8.986;2022-11-27T22:04:07;4.60;1.00
8971;DHT22;4520;48.978;8.986;2022-11-27T22:06:35;4.60;1.00
8971;DHT22;4520;48.978;8.986;2022-11-27T22:09:00;4.70;1.00
8971;DHT22;4520;48.978;8.986;2022-11-27T22:11:27;4.60;1.00
8971;DHT22;4520;48.978;8.986;2022-11-27T22:13:53;4.70;1.00
8971;DHT22;4520;48.978;8.986;2022-11-27T22:16:20;4.60;1.00
8971;DHT22;4520;48.978;8.986;2022-11-27T22:18:46;4.60;1.00
8971;DHT22;4520;48.978;8.986;2022-11-27T22:21:12;4.60;1.00
8971;DHT22;4520;48.978;8.986;2022-11-27T22:23:38;4.60;31.10
8971;DHT22;4520;48.978;8.986;2022-11-27T22:26:05;4.50;94.30
8971;DHT22;4520;48.978;8.986;2022-11-27T22:28:30;4.60;99.90
8971;DHT22;4520;48.978;8.986;2022-11-27T22:30:56;4.60;99.90
8971;DHT22;4520;48.978;8.986;2022-11-27T22:33:22;4.70;99.90
8971;DHT22;4520;48.978;8.986;2022-11-27T22:35:47;4.60;99.90
8971;DHT22;4520;48.978;8.986;2022-11-27T22:38:13;4.60;99.90
8971;DHT22;4520;48.978;8.986;2022-11-27T22:50:22;4.70;1.00
8971;DHT22;4520;48.978;8.986;2022-11-27T22:52:47;4.60;99.90
8971;DHT22;4520;48.978;8.986;2022-11-27T22:55:13;4.50;99.90
8971;DHT22;4520;48.978;8.986;2022-11-27T22:57:38;4.60;99.90
8971;DHT22;4520;48.978;8.986;2022-11-27T23:00:05;4.60;99.90
8971;DHT22;4520;48.978;8.986;2022-11-27T23:02:31;4.60;99.90
8971;DHT22;4520;48.978;8.986;2022-11-27T23:04:56;4.40;99.90
8971;DHT22;4520;48.978;8.986;2022-11-27T23:07:22;4.50;99.90
8971;DHT22;4520;48.978;8.986;2022-11-27T23:09:47;4.50;99.90
8971;DHT22;4520;48.978;8.986;2022-11-27T23:12:12;4.40;99.90
8971;DHT22;4520;48.978;8.986;2022-11-27T23:14:38;4.50;99.90
8971;DHT22;4520;48.978;8.986;2022-11-27T23:19:29;4.50;99.90
8971;DHT22;4520;48.978;8.986;2022-11-27T23:21:55;4.50;99.90
8971;DHT22;4520;48.978;8.986;2022-11-27T23:24:20;4.30;99.90
8971;DHT22;4520;48.978;8.986;2022-11-27T23:26:46;4.40;99.90
8971;DHT22;4520;48.978;8.986;2022-11-27T23:29:12;4.40;99.90
8971;DHT22;4520;48.978;8.986;2022-11-27T23:31:38;4.40;1.00
8971;DHT22;4520;48.978;8.986;2022-11-27T23:34:05;4.40;1.00
8971;DHT22;4520;48.978;8.986;2022-11-27T23:36:32;4.30;1.00
8971;DHT22;4520;48.978;8.986;2022-11-27T23:38:58;4.50;1.00
8971;DHT22;4520;48.978;8.986;2022-11-27T23:41:24;4.90;1.00
8971;DHT22;4520;48.978;8.986;2022-11-27T23:43:51;4.40;1.00
8971;DHT22;4520;48.978;8.986;2022-11-27T23:46:17;4.40;1.00
8971;DHT22;4520;48.978;8.986;2022-11-27T23:48:43;4.40;1.00
8971;DHT22;4520;48.978;8.986;2022-11-27T23:51:13;4.50;1.00
8971;DHT22;4520;48.978;8.986;2022-11-27T23:53:38;4.60;1.00
